Time;durP1;ratioP1;P1;durP2;ratioP2;P2;SDS_P1;SDS_P2;PMS_P1;PMS_P2;Temp;Humidity;BMP_temperature;BMP_pressure;BME280_temperature;BME280_humidity;BME280_pressure;Samples;Min_cycle;Max_cycle;Signal;HPM_P1;HPM_P2
2022/09/28 00:02:25;;;;;;;6.38;2.90;;;;;;;;;;4985607;28;20042;-68
2022/09/28 00:04:51;;;;;;;5.55;2.50;;;;;;;;;;4997990;28;20065;-67
2022/09/28 00:07:18;;;;;;;4.93;2.47;;;;;;;;;;5006310;28;20098;-68
2022/09/28 00:09:45;;;;;;;4.90;2.30;;;;;;;;;;5005881;28;20068;-68
2022/09/28 00:12:11;;;;;;;5.53;2.30;;;;;;;;;;5006132;28;20053;-68
2022/09/28 00:14:39;;;;;;;5.50;2.97;;;;;;;;;;5003220;28;20168;-68
2022/09/28 00:17:07;;;;;;;6.43;2.97;;;;;;;;;;5006474;28;20042;-69
2022/09/28 00:19:33;;;;;;;7.53;2.67;;;;;;;;;;5004991;28;20037;-68
2022/09/28 00:22:00;;;;;;;4.75;2.70;;;;;;;;;;5005960;28;20045;-68
2022/09/28 00:24:27;;;;;;;4.40;2.33;;;;;;;;;;5004378;28;20125;-67
2022/09/28 00:26:57;;;;;;;5.72;2.20;;;;;;;;;;5005306;28;20108;-68
2022/09/28 00:29:30;;;;;;;5.07;2.13;;;;;;;;;;5003296;28;20125;-68
2022/09/28 00:32:01;;;;;;;6.55;2.42;;;;;;;;;;5005809;28;20043;-67
2022/09/28 00:34:30;;;;;;;5.75;2.47;;;;;;;;;;5001783;28;20046;-68
2022/09/28 00:36:57;;;;;;;5.63;2.20;;;;;;;;;;5008271;28;20692;-68
2022/09/28 00:39:25;;;;;;;6.95;2.50;;;;;;;;;;4991198;28;20609;-69
2022/09/28 00:41:52;;;;;;;5.90;2.70;;;;;;;;;;5008590;28;20869;-67
2022/09/28 00:44:25;;;;;;;8.70;2.78;;;;;;;;;;5006969;28;20072;-70
2022/09/28 00:46:51;;;;;;;7.25;2.92;;;;;;;;;;5010719;28;20045;-67
2022/09/28 00:49:20;;;;;;;5.40;3.30;;;;;;;;;;5009038;28;20044;-69
2022/09/28 00:51:48;;;;;;;7.57;3.30;;;;;;;;;;5008920;28;20437;-69
2022/09/28 00:54:15;;;;;;;6.32;3.42;;;;;;;;;;5008088;28;20037;-69
2022/09/28 00:56:44;;;;;;;10.50;3.83;;;;;;;;;;5006322;28;21373;-69
2022/09/28 00:59:11;;;;;;;6.38;3.78;;;;;;;;;;5007226;28;20060;-65
2022/09/28 01:01:37;;;;;;;5.47;3.42;;;;;;;;;;5008008;28;20038;-68
2022/09/28 01:04:04;;;;;;;9.57;4.03;;;;;;;;;;5008102;28;20037;-70
2022/09/28 01:06:32;;;;;;;6.75;3.75;;;;;;;;;;5009798;28;20506;-67
2022/09/28 01:09:01;;;;;;;10.00;4.00;;;;;;;;;;5008549;28;20049;-68
2022/09/28 01:11:30;;;;;;;7.18;3.83;;;;;;;;;;5009708;28;20061;-69
2022/09/28 01:13:57;;;;;;;10.95;4.22;;;;;;;;;;5004879;28;20226;-68
2022/09/28 01:16:34;;;;;;;8.55;4.05;;;;;;;;;;5008154;28;20034;-69
2022/09/28 01:19:20;;;;;;;16.65;7.50;;;;;;;;;;5008360;28;20037;-67
2022/09/28 01:21:50;;;;;;;13.23;5.45;;;;;;;;;;5008274;28;20056;-67
2022/09/28 01:24:20;;;;;;;14.88;5.63;;;;;;;;;;5007294;28;20138;-68
2022/09/28 01:26:46;;;;;;;12.95;5.25;;;;;;;;;;5009554;28;20039;-66
2022/09/28 01:29:40;;;;;;;12.55;5.18;;;;;;;;;;5003843;28;20068;-66
2022/09/28 01:32:25;;;;;;;10.82;5.20;;;;;;;;;;5004402;28;20042;-68
2022/09/28 01:34:51;;;;;;;13.07;4.90;;;;;;;;;;4992662;28;20053;-66
2022/09/28 01:37:20;;;;;;;9.70;4.57;;;;;;;;;;5005120;28;20562;-66
2022/09/28 01:39:49;;;;;;;13.57;5.30;;;;;;;;;;5003825;28;20084;-68
2022/09/28 01:42:19;;;;;;;16.98;5.15;;;;;;;;;;5005421;28;20056;-67
2022/09/28 01:44:49;;;;;;;18.17;5.55;;;;;;;;;;5000584;28;20047;-66
2022/09/28 01:47:19;;;;;;;14.45;5.75;;;;;;;;;;4989894;28;20042;-68
2022/09/28 01:49:47;;;;;;;11.95;5.60;;;;;;;;;;5003195;28;20047;-68
2022/09/28 01:52:23;;;;;;;11.60;5.15;;;;;;;;;;5005618;28;20453;-66
2022/09/28 01:54:55;;;;;;;11.88;5.57;;;;;;;;;;5003688;28;20037;-68
2022/09/28 01:57:21;;;;;;;;;;;;;;;;;;5003475;28;20050;-67
2022/09/28 02:00:01;;;;;;;11.23;5.60;;;;;;;;;;5005020;28;19921;-68
2022/09/28 02:02:31;;;;;;;12.13;5.47;;;;;;;;;;5004208;28;20134;-67
2022/09/28 02:05:00;;;;;;;10.80;5.35;;;;;;;;;;5002178;28;20132;-68
2022/09/28 02:07:34;;;;;;;13.50;5.57;;;;;;;;;;5003066;28;20053;-69
2022/09/28 02:10:04;;;;;;;12.40;5.30;;;;;;;;;;5004941;28;21814;-67
2022/09/28 02:12:43;;;;;;;17.25;5.43;;;;;;;;;;5002798;28;20137;-67
2022/09/28 02:15:32;;;;;;;12.95;5.90;;;;;;;;;;5003170;28;20072;-68
2022/09/28 02:17:59;;;;;;;11.40;5.32;;;;;;;;;;5004726;28;20528;-68
2022/09/28 02:20:26;;;;;;;16.02;5.70;;;;;;;;;;5001589;28;20148;-65
2022/09/28 02:22:57;;;;;;;57.13;28.17;;;;;;;;;;5004281;28;20045;-66
2022/09/28 02:25:48;;;;;;;19.23;7.50;;;;;;;;;;5002540;28;20048;-67
2022/09/28 02:28:15;;;;;;;20.40;7.00;;;;;;;;;;4992895;28;20057;-66
2022/09/28 02:30:42;;;;;;;14.05;7.15;;;;;;;;;;5004236;28;20470;-67
2022/09/28 02:33:13;;;;;;;15.30;6.55;;;;;;;;;;5006835;28;20090;-66
2022/09/28 02:35:41;;;;;;;14.57;5.97;;;;;;;;;;4986359;28;20084;-69
2022/09/28 02:38:07;;;;;;;15.88;5.78;;;;;;;;;;5004661;28;20046;-69
2022/09/28 02:40:36;;;;;;;19.02;5.75;;;;;;;;;;4991024;28;20042;-68
2022/09/28 02:43:24;;;;;;;14.77;6.00;;;;;;;;;;4987159;28;20042;-69
2022/09/28 02:46:01;;;;;;;17.70;9.02;;;;;;;;;;4985293;28;20041;-65
2022/09/28 02:48:28;;;;;;;19.02;6.68;;;;;;;;;;4987457;28;20080;-66
2022/09/28 02:51:04;;;;;;;13.60;5.78;;;;;;;;;;4988164;28;20719;-65
2022/09/28 02:53:34;;;;;;;10.95;5.47;;;;;;;;;;4983963;28;20081;-68
2022/09/28 02:56:00;;;;;;;11.93;5.93;;;;;;;;;;4994822;28;20722;-65
2022/09/28 02:58:35;;;;;;;11.05;5.30;;;;;;;;;;4999352;28;20765;-65
2022/09/28 03:01:17;;;;;;;14.98;6.03;;;;;;;;;;4985670;28;20120;-68
2022/09/28 03:03:50;;;;;;;17.88;5.47;;;;;;;;;;4999920;28;20042;-68
2022/09/28 03:06:27;;;;;;;13.88;5.95;;;;;;;;;;5004143;28;20038;-68
2022/09/28 03:09:03;;;;;;;17.95;5.22;;;;;;;;;;5004973;28;20044;-69
2022/09/28 03:11:42;;;;;;;14.18;6.40;;;;;;;;;;5006662;28;20053;-68
2022/09/28 03:14:09;;;;;;;10.68;5.35;;;;;;;;;;5005238;28;20053;-68
2022/09/28 03:16:36;;;;;;;16.25;5.82;;;;;;;;;;4989518;28;20080;-68
2022/09/28 03:19:02;;;;;;;11.93;5.25;;;;;;;;;;5006081;28;20084;-69
2022/09/28 03:21:29;;;;;;;12.23;4.70;;;;;;;;;;5003545;28;20042;-68
2022/09/28 03:23:56;;;;;;;12.60;4.78;;;;;;;;;;5006261;28;20065;-68
2022/09/28 03:26:23;;;;;;;10.27;4.57;;;;;;;;;;5006369;28;20797;-68
2022/09/28 03:28:49;;;;;;;8.82;4.38;;;;;;;;;;5005876;28;20573;-68
2022/09/28 03:31:16;;;;;;;13.75;4.95;;;;;;;;;;5005706;28;20047;-67
2022/09/28 03:33:42;;;;;;;11.38;4.38;;;;;;;;;;4988923;28;20160;-67
2022/09/28 03:36:09;;;;;;;10.50;4.18;;;;;;;;;;5002864;28;20049;-68
2022/09/28 03:38:36;;;;;;;9.02;4.18;;;;;;;;;;4995741;28;20462;-67
2022/09/28 03:41:02;;;;;;;10.05;4.40;;;;;;;;;;5010011;28;20079;-69
2022/09/28 03:43:30;;;;;;;14.18;4.45;;;;;;;;;;5004154;28;20038;-71
2022/09/28 03:46:01;;;;;;;10.88;4.40;;;;;;;;;;5004019;28;20045;-68
2022/09/28 03:48:29;;;;;;;19.83;5.20;;;;;;;;;;4985222;28;20105;-67
2022/09/28 03:50:56;;;;;;;9.30;4.65;;;;;;;;;;5004307;28;20040;-69
2022/09/28 03:53:23;;;;;;;16.40;4.28;;;;;;;;;;4994799;28;20076;-67
2022/09/28 03:55:52;;;;;;;13.32;5.30;;;;;;;;;;5004817;28;20501;-67
2022/09/28 03:58:21;;;;;;;12.38;4.53;;;;;;;;;;4992474;28;21955;-69
2022/09/28 04:00:49;;;;;;;10.98;4.50;;;;;;;;;;5005340;28;20037;-68
2022/09/28 04:03:16;;;;;;;11.05;4.30;;;;;;;;;;5006609;28;20065;-68
2022/09/28 04:05:49;;;;;;;15.30;5.68;;;;;;;;;;5004986;28;21483;-65
2022/09/28 04:08:16;;;;;;;11.60;4.60;;;;;;;;;;5006128;28;20045;-67
2022/09/28 04:10:42;;;;;;;9.90;4.53;;;;;;;;;;5007970;28;20134;-68
2022/09/28 04:13:09;;;;;;;11.80;4.47;;;;;;;;;;5007778;28;20052;-68
2022/09/28 04:15:37;;;;;;;10.73;4.63;;;;;;;;;;5007594;28;20835;-68
2022/09/28 04:18:04;;;;;;;17.88;4.78;;;;;;;;;;4995468;28;20037;-68
2022/09/28 04:20:32;;;;;;;10.55;5.22;;;;;;;;;;5009469;28;20045;-67
2022/09/28 04:22:58;;;;;;;11.90;4.57;;;;;;;;;;5009943;28;20850;-69
2022/09/28 04:25:25;;;;;;;13.98;4.45;;;;;;;;;;5010244;28;20034;-68
2022/09/28 04:30:37;;;;;;;9.45;3.67;;;;;;;;;;5008995;28;20041;-67
2022/09/28 04:33:03;;;;;;;9.70;3.90;;;;;;;;;;4989207;28;20901;-67
2022/09/28 04:35:30;;;;;;;11.00;4.60;;;;;;;;;;5008168;28;20033;-69
2022/09/28 04:37:56;;;;;;;8.55;4.07;;;;;;;;;;5008941;28;20083;-67
2022/09/28 04:40:23;;;;;;;10.70;4.18;;;;;;;;;;5009540;28;20266;-67
2022/09/28 04:42:56;;;;;;;11.27;4.10;;;;;;;;;;5005632;28;20037;-68
2022/09/28 04:45:24;;;;;;;;;;;;;;;;;;5007032;28;20038;-67
2022/09/28 04:47:51;;;;;;;13.98;4.50;;;;;;;;;;5009157;28;19932;-67
2022/09/28 04:50:18;;;;;;;8.18;4.05;;;;;;;;;;5008132;28;20041;-68
2022/09/28 04:52:44;;;;;;;14.07;4.60;;;;;;;;;;5009327;28;20177;-67
2022/09/28 04:55:15;;;;;;;15.77;5.55;;;;;;;;;;5003301;28;20044;-67
2022/09/28 04:57:42;;;;;;;9.43;4.72;;;;;;;;;;5007084;28;20062;-68
2022/09/28 05:00:09;;;;;;;11.45;4.80;;;;;;;;;;5008213;28;20112;-70
2022/09/28 05:02:36;;;;;;;11.45;4.68;;;;;;;;;;5007600;28;20402;-69
2022/09/28 05:05:02;;;;;;;12.75;4.63;;;;;;;;;;5008025;28;20390;-68
2022/09/28 05:07:30;;;;;;;10.77;5.03;;;;;;;;;;4992818;28;20053;-67
2022/09/28 05:09:56;;;;;;;15.30;4.72;;;;;;;;;;5008431;28;20095;-68
2022/09/28 05:12:23;;;;;;;12.55;4.93;;;;;;;;;;5007304;28;20049;-67
2022/09/28 05:14:49;;;;;;;13.43;4.60;;;;;;;;;;5006853;28;20344;-67
2022/09/28 05:17:16;;;;;;;14.15;5.10;;;;;;;;;;5009995;28;20139;-66
2022/09/28 05:19:43;;;;;;;10.98;4.55;;;;;;;;;;4989499;28;20041;-66
2022/09/28 05:22:13;;;;;;;14.73;4.95;;;;;;;;;;5007196;28;20046;-67
2022/09/28 05:24:40;;;;;;;14.35;5.03;;;;;;;;;;5006578;28;20136;-67
2022/09/28 05:27:07;;;;;;;8.60;4.28;;;;;;;;;;4991865;28;20030;-68
2022/09/28 05:29:34;;;;;;;9.93;4.60;;;;;;;;;;4998356;28;20060;-69
2022/09/28 05:32:00;;;;;;;9.80;4.45;;;;;;;;;;4995969;28;20050;-67
2022/09/28 05:34:27;;;;;;;11.98;4.78;;;;;;;;;;5008165;28;20509;-67
2022/09/28 05:36:54;;;;;;;10.13;4.68;;;;;;;;;;5010030;28;20041;-67
2022/09/28 05:39:40;;;;;;;13.05;5.03;;;;;;;;;;4964888;28;20555;-68
2022/09/28 05:42:07;;;;;;;13.90;4.85;;;;;;;;;;4967215;28;20044;-68
2022/09/28 05:44:33;;;;;;;13.30;4.93;;;;;;;;;;4965783;28;20030;-68
2022/09/28 05:47:00;;;;;;;12.88;4.90;;;;;;;;;;4967388;28;20039;-68
2022/09/28 05:49:28;;;;;;;19.50;5.38;;;;;;;;;;4967747;28;20046;-68
2022/09/28 05:51:54;;;;;;;10.07;4.82;;;;;;;;;;4967873;28;20134;-67
2022/09/28 05:54:21;;;;;;;15.15;4.93;;;;;;;;;;4965582;28;20070;-68
2022/09/28 05:56:47;;;;;;;12.95;4.82;;;;;;;;;;4966226;28;20089;-67
2022/09/28 05:59:15;;;;;;;9.75;4.45;;;;;;;;;;4968630;28;20038;-67
2022/09/28 06:01:42;;;;;;;9.98;4.88;;;;;;;;;;4967760;28;20027;-67
2022/09/28 06:04:08;;;;;;;12.15;4.78;;;;;;;;;;4965863;28;20039;-68
2022/09/28 06:06:37;;;;;;;10.32;4.63;;;;;;;;;;4963575;28;20035;-67
2022/09/28 06:09:04;;;;;;;11.55;4.57;;;;;;;;;;4962685;28;20039;-67
2022/09/28 06:11:31;;;;;;;11.98;4.90;;;;;;;;;;4954673;28;20133;-68
2022/09/28 06:14:18;;;;;;;9.65;4.88;;;;;;;;;;4960590;28;20057;-68
2022/09/28 06:16:45;;;;;;;12.23;4.50;;;;;;;;;;4976871;28;20086;-67
2022/09/28 06:19:11;;;;;;;11.93;5.10;;;;;;;;;;4999907;28;20075;-67
2022/09/28 06:21:38;;;;;;;14.63;4.88;;;;;;;;;;4981634;28;20038;-71
2022/09/28 06:24:06;;;;;;;21.63;5.25;;;;;;;;;;4980930;28;20046;-68
2022/09/28 06:26:33;;;;;;;16.90;5.45;;;;;;;;;;5001906;28;20142;-67
2022/09/28 06:28:59;;;;;;;15.38;4.82;;;;;;;;;;5002607;28;20104;-67
2022/09/28 06:31:28;;;;;;;22.13;5.30;;;;;;;;;;5000997;28;20549;-69
2022/09/28 06:33:55;;;;;;;12.48;5.00;;;;;;;;;;4999276;28;20049;-68
2022/09/28 06:36:22;;;;;;;15.82;4.97;;;;;;;;;;4997282;28;20038;-66
2022/09/28 06:38:49;;;;;;;16.08;4.55;;;;;;;;;;5000272;28;20057;-67
2022/09/28 06:41:17;;;;;;;20.05;4.75;;;;;;;;;;5002851;28;20044;-68
2022/09/28 06:43:45;;;;;;;9.20;3.75;;;;;;;;;;4995357;28;20101;-67
2022/09/28 06:46:12;;;;;;;9.40;3.90;;;;;;;;;;5003378;28;20060;-67
2022/09/28 06:48:39;;;;;;;11.30;3.47;;;;;;;;;;5002022;28;20116;-67
2022/09/28 06:51:06;;;;;;;13.88;3.95;;;;;;;;;;5004620;28;20731;-66
2022/09/28 06:53:33;;;;;;;12.10;3.80;;;;;;;;;;5003798;28;21734;-67
2022/09/28 06:56:01;;;;;;;10.52;3.70;;;;;;;;;;4991947;28;20087;-67
2022/09/28 06:58:29;;;;;;;13.73;3.55;;;;;;;;;;5004805;28;20601;-67
2022/09/28 07:00:59;;;;;;;8.07;3.65;;;;;;;;;;5006439;28;20033;-67
2022/09/28 07:03:26;;;;;;;8.88;3.47;;;;;;;;;;5003776;28;20098;-67
2022/09/28 07:05:54;;;;;;;9.27;3.90;;;;;;;;;;5006664;28;20033;-67
2022/09/28 07:08:25;;;;;;;9.55;3.42;;;;;;;;;;5005712;28;20138;-66
2022/09/28 07:10:55;;;;;;;9.88;3.47;;;;;;;;;;5006872;28;20042;-65
2022/09/28 07:13:27;;;;;;;6.90;3.17;;;;;;;;;;5005910;28;20160;-67
2022/09/28 07:15:54;;;;;;;11.85;3.85;;;;;;;;;;4991612;28;20092;-69
2022/09/28 07:18:23;;;;;;;13.82;3.60;;;;;;;;;;5002157;28;20065;-68
2022/09/28 07:20:49;;;;;;;10.15;3.72;;;;;;;;;;5008732;28;21972;-66
2022/09/28 07:23:17;;;;;;;10.63;3.60;;;;;;;;;;5009370;28;20041;-66
2022/09/28 07:25:46;;;;;;;17.40;3.83;;;;;;;;;;5006737;28;20084;-68
2022/09/28 07:28:13;;;;;;;8.73;3.63;;;;;;;;;;5006219;28;20038;-66
2022/09/28 07:30:41;;;;;;;16.58;3.60;;;;;;;;;;5005890;28;20046;-66
2022/09/28 07:33:08;;;;;;;14.27;3.50;;;;;;;;;;5005570;28;20029;-67
2022/09/28 07:35:34;;;;;;;15.07;3.42;;;;;;;;;;5005029;28;20068;-66
2022/09/28 07:38:03;;;;;;;10.32;3.33;;;;;;;;;;5005173;28;20033;-67
2022/09/28 07:43:19;;;;;;;14.18;3.38;;;;;;;;;;5004531;28;20107;-66
2022/09/28 07:45:46;;;;;;;13.52;3.05;;;;;;;;;;5004139;28;20066;-66
2022/09/28 07:48:17;;;;;;;12.52;3.28;;;;;;;;;;5002769;28;20038;-67
2022/09/28 07:50:50;;;;;;;7.47;3.47;;;;;;;;;;4988116;28;20053;-67
2022/09/28 07:53:18;;;;;;;7.65;3.08;;;;;;;;;;5005584;28;20468;-66
2022/09/28 07:55:50;;;;;;;10.25;3.08;;;;;;;;;;4999034;28;20053;-66
2022/09/28 07:58:18;;;;;;;9.70;3.42;;;;;;;;;;5002373;28;20618;-67
2022/09/28 08:00:46;;;;;;;7.57;3.40;;;;;;;;;;5003330;28;20041;-66
2022/09/28 08:03:14;;;;;;;13.60;3.83;;;;;;;;;;5004108;28;20048;-67
2022/09/28 08:05:41;;;;;;;8.18;3.38;;;;;;;;;;4984414;28;20054;-67
2022/09/28 08:08:08;;;;;;;11.68;3.42;;;;;;;;;;5005881;28;20289;-66
2022/09/28 08:10:36;;;;;;;6.30;3.28;;;;;;;;;;5003062;28;20165;-66
2022/09/28 08:13:03;;;;;;;8.60;3.20;;;;;;;;;;5003988;28;20042;-65
2022/09/28 08:15:35;;;;;;;8.13;3.38;;;;;;;;;;5005033;28;20047;-67
2022/09/28 08:18:06;;;;;;;6.95;3.42;;;;;;;;;;5005230;28;20152;-65
2022/09/28 08:23:19;;;;;;;6.68;3.45;;;;;;;;;;5005300;28;20084;-65
2022/09/28 08:25:49;;;;;;;16.77;3.53;;;;;;;;;;5004163;28;20042;-65
2022/09/28 08:28:16;;;;;;;13.45;3.70;;;;;;;;;;4987742;28;20040;-65
2022/09/28 08:30:44;;;;;;;9.48;3.10;;;;;;;;;;5003337;28;20502;-65
2022/09/28 08:33:11;;;;;;;7.20;3.35;;;;;;;;;;5004084;28;20073;-65
2022/09/28 08:35:39;;;;;;;8.70;3.30;;;;;;;;;;4983794;28;20670;-66
2022/09/28 08:38:07;;;;;;;6.13;3.38;;;;;;;;;;5002149;28;20420;-66
2022/09/28 08:40:37;;;;;;;9.38;3.50;;;;;;;;;;5003923;28;20625;-66
2022/09/28 08:43:10;;;;;;;9.38;3.47;;;;;;;;;;5002892;28;20131;-66
2022/09/28 08:45:36;;;;;;;7.93;3.10;;;;;;;;;;5003045;28;20461;-66
2022/09/28 08:51:15;;;;;;;11.20;3.42;;;;;;;;;;4963105;28;20053;-67
2022/09/28 08:53:48;;;;;;;9.98;3.33;;;;;;;;;;4956122;28;20082;-68
2022/09/28 08:56:18;;;;;;;9.38;3.72;;;;;;;;;;4969712;28;20069;-67
2022/09/28 08:58:48;;;;;;;7.43;3.40;;;;;;;;;;4968925;28;20042;-65
2022/09/28 09:01:17;;;;;;;7.50;3.47;;;;;;;;;;4968785;28;20030;-67
2022/09/28 09:03:44;;;;;;;9.43;3.33;;;;;;;;;;4968093;28;20065;-67
2022/09/28 09:06:28;;;;;;;9.38;3.55;;;;;;;;;;4970786;28;20493;-66
2022/09/28 09:08:56;;;;;;;10.13;3.63;;;;;;;;;;4968270;28;20699;-65
2022/09/28 09:11:42;;;;;;;9.65;3.75;;;;;;;;;;4969583;28;21206;-67
2022/09/28 09:14:16;;;;;;;11.25;3.30;;;;;;;;;;4969054;28;20058;-65
2022/09/28 09:16:54;;;;;;;6.70;3.20;;;;;;;;;;4968881;28;20090;-65
2022/09/28 09:19:27;;;;;;;11.60;5.63;;;;;;;;;;4967367;28;20039;-68
2022/09/28 09:22:04;;;;;;;8.40;3.50;;;;;;;;;;4987946;28;20380;-65
2022/09/28 09:24:36;;;;;;;8.15;3.60;;;;;;;;;;5005647;28;20512;-65
2022/09/28 09:27:13;;;;;;;6.55;3.42;;;;;;;;;;5005913;28;20099;-66
2022/09/28 09:29:51;;;;;;;7.10;3.22;;;;;;;;;;5006351;28;20046;-67
2022/09/28 09:32:24;;;;;;;8.80;3.25;;;;;;;;;;5007580;28;20037;-65
2022/09/28 09:35:04;;;;;;;7.70;3.70;;;;;;;;;;5006420;28;20045;-66
2022/09/28 09:37:33;;;;;;;8.18;3.60;;;;;;;;;;5006848;28;21088;-66
2022/09/28 09:39:59;;;;;;;6.40;3.30;;;;;;;;;;4996574;28;20092;-66
2022/09/28 09:42:36;;;;;;;8.43;3.60;;;;;;;;;;4999433;28;20046;-65
2022/09/28 09:45:14;;;;;;;8.07;3.63;;;;;;;;;;4996299;28;20041;-65
2022/09/28 09:47:43;;;;;;;9.57;3.30;;;;;;;;;;4995432;28;20089;-66
2022/09/28 09:50:28;;;;;;;8.50;4.10;;;;;;;;;;5005775;28;20442;-67
2022/09/28 09:53:13;;;;;;;8.45;3.53;;;;;;;;;;5004167;28;20054;-67
2022/09/28 09:55:43;;;;;;;12.23;4.00;;;;;;;;;;5005931;28;20050;-67
2022/09/28 09:58:13;;;;;;;7.97;3.42;;;;;;;;;;5006793;28;20124;-66
2022/09/28 10:00:47;;;;;;;6.07;3.50;;;;;;;;;;5006479;28;20054;-67
2022/09/28 10:03:21;;;;;;;10.70;4.00;;;;;;;;;;5007426;28;20122;-66
2022/09/28 10:05:52;;;;;;;12.45;4.07;;;;;;;;;;5007283;28;20599;-66
2022/09/28 10:08:20;;;;;;;8.85;3.67;;;;;;;;;;5009465;28;20037;-66
2022/09/28 10:10:49;;;;;;;8.93;3.40;;;;;;;;;;5005717;28;20128;-66
2022/09/28 10:13:16;;;;;;;8.07;3.17;;;;;;;;;;5006315;28;20061;-67
2022/09/28 10:15:44;;;;;;;6.75;3.92;;;;;;;;;;5004849;28;20041;-66
2022/09/28 10:18:11;;;;;;;5.78;3.60;;;;;;;;;;5006086;28;20487;-65
2022/09/28 10:20:39;;;;;;;8.85;3.15;;;;;;;;;;5005597;28;20041;-66
2022/09/28 10:23:11;;;;;;;8.63;4.18;;;;;;;;;;5005929;28;20037;-66
2022/09/28 10:25:37;;;;;;;7.35;3.65;;;;;;;;;;5005485;28;20041;-65
2022/09/28 10:28:11;;;;;;;12.55;3.53;;;;;;;;;;5006264;28;20045;-65
2022/09/28 10:30:42;;;;;;;;;;;;;;;;;;5007806;28;20052;-65
2022/09/28 10:33:29;;;;;;;9.38;4.13;;;;;;;;;;5006874;28;20577;-66
2022/09/28 10:35:56;;;;;;;11.05;3.70;;;;;;;;;;5005616;28;20038;-66
2022/09/28 10:38:23;;;;;;;9.02;3.70;;;;;;;;;;5008299;28;20081;-66
2022/09/28 10:40:54;;;;;;;6.43;3.35;;;;;;;;;;5006384;28;20044;-66
2022/09/28 10:43:35;;;;;;;8.73;3.50;;;;;;;;;;5006029;28;20046;-66
2022/09/28 10:46:02;;;;;;;9.07;3.90;;;;;;;;;;5007528;28;20172;-67
2022/09/28 10:48:30;;;;;;;8.35;3.58;;;;;;;;;;5007516;28;20042;-66
2022/09/28 10:51:02;;;;;;;9.02;3.85;;;;;;;;;;5008051;28;20033;-66
2022/09/28 10:53:29;;;;;;;7.53;3.50;;;;;;;;;;5007731;28;20400;-67
2022/09/28 10:56:03;;;;;;;9.23;3.92;;;;;;;;;;5006089;28;20038;-65
2022/09/28 10:58:33;;;;;;;7.07;3.60;;;;;;;;;;5004637;28;20060;-66
2022/09/28 11:01:02;;;;;;;8.02;4.05;;;;;;;;;;5005487;28;20033;-66
2022/09/28 11:03:29;;;;;;;6.65;3.38;;;;;;;;;;5006734;28;20077;-65
2022/09/28 11:05:59;;;;;;;8.40;3.60;;;;;;;;;;5004018;28;20061;-65
2022/09/28 11:08:30;;;;;;;8.43;3.20;;;;;;;;;;5007770;28;20037;-66
2022/09/28 11:11:04;;;;;;;7.53;3.40;;;;;;;;;;5009365;28;20044;-66
2022/09/28 11:13:37;;;;;;;10.27;3.63;;;;;;;;;;5005699;28;21103;-67
2022/09/28 11:16:04;;;;;;;9.67;3.60;;;;;;;;;;5009566;28;20239;-66
2022/09/28 11:18:31;;;;;;;7.85;3.78;;;;;;;;;;5010891;28;20045;-66
2022/09/28 11:21:13;;;;;;;6.85;3.60;;;;;;;;;;5011802;28;20119;-69
2022/09/28 11:23:43;;;;;;;8.65;3.55;;;;;;;;;;5009853;28;20049;-67
2022/09/28 11:26:11;;;;;;;10.45;3.33;;;;;;;;;;5005430;28;20766;-66
2022/09/28 11:28:41;;;;;;;7.55;3.63;;;;;;;;;;5005537;28;20046;-67
2022/09/28 11:31:08;;;;;;;8.20;3.58;;;;;;;;;;5007318;28;20088;-66
2022/09/28 11:33:40;;;;;;;8.20;3.55;;;;;;;;;;5005638;28;20513;-67
2022/09/28 11:36:15;;;;;;;7.22;3.60;;;;;;;;;;5005961;28;20033;-67
2022/09/28 11:38:42;;;;;;;8.35;3.40;;;;;;;;;;5003365;28;20107;-66
2022/09/28 11:41:11;;;;;;;7.00;3.20;;;;;;;;;;5006872;28;20037;-67
2022/09/28 11:43:41;;;;;;;7.97;3.55;;;;;;;;;;5007101;28;20104;-67
2022/09/28 11:46:10;;;;;;;6.72;3.50;;;;;;;;;;5006721;28;20047;-66
2022/09/28 11:48:52;;;;;;;9.02;3.08;;;;;;;;;;5005997;28;20175;-65
2022/09/28 11:51:27;;;;;;;6.32;3.30;;;;;;;;;;4999470;28;20041;-66
2022/09/28 11:53:59;;;;;;;9.55;3.78;;;;;;;;;;4985342;28;20064;-66
2022/09/28 11:56:26;;;;;;;6.95;3.45;;;;;;;;;;4989342;28;20469;-65
2022/09/28 11:58:59;;;;;;;13.02;3.30;;;;;;;;;;5006379;28;20050;-65
2022/09/28 12:01:49;;;;;;;9.48;3.15;;;;;;;;;;5001607;28;20029;-65
2022/09/28 12:04:16;;;;;;;9.52;3.60;;;;;;;;;;4980154;28;20073;-67
2022/09/28 12:06:58;;;;;;;8.15;3.88;;;;;;;;;;5001845;28;20040;-65
2022/09/28 12:09:35;;;;;;;6.50;3.63;;;;;;;;;;5005533;28;20100;-65
2022/09/28 12:12:03;;;;;;;9.45;3.92;;;;;;;;;;5004054;28;20041;-65
2022/09/28 12:14:33;;;;;;;10.27;3.50;;;;;;;;;;5002459;28;20046;-66
2022/09/28 12:17:14;;;;;;;8.45;3.67;;;;;;;;;;5004501;28;20046;-66
2022/09/28 12:19:50;;;;;;;10.00;3.97;;;;;;;;;;4999483;28;20038;-65
2022/09/28 12:22:37;;;;;;;9.23;3.53;;;;;;;;;;5003934;28;20037;-66
2022/09/28 12:25:04;;;;;;;8.10;4.35;;;;;;;;;;5003774;28;20038;-65
2022/09/28 12:27:36;;;;;;;6.63;3.90;;;;;;;;;;5004667;28;20049;-66
2022/09/28 12:30:06;;;;;;;10.50;4.00;;;;;;;;;;5004269;28;20044;-65
2022/09/28 12:32:34;;;;;;;16.02;4.18;;;;;;;;;;5004148;28;20042;-66
2022/09/28 12:35:01;;;;;;;9.63;3.97;;;;;;;;;;5007171;28;20136;-66
2022/09/28 12:37:31;;;;;;;14.68;4.38;;;;;;;;;;5007654;28;20490;-65
2022/09/28 12:40:08;;;;;;;11.85;3.97;;;;;;;;;;5003684;28;20176;-65
2022/09/28 12:42:53;;;;;;;19.55;4.65;;;;;;;;;;5006086;28;20126;-66
2022/09/28 12:45:20;;;;;;;9.70;4.07;;;;;;;;;;5007237;28;20526;-64
2022/09/28 12:47:52;;;;;;;16.00;5.00;;;;;;;;;;5008433;28;20040;-65
2022/09/28 12:50:30;;;;;;;8.40;4.00;;;;;;;;;;5008009;28;20053;-66
2022/09/28 12:52:59;;;;;;;8.27;4.10;;;;;;;;;;5006518;28;20050;-64
2022/09/28 12:55:34;;;;;;;11.07;4.70;;;;;;;;;;5004275;28;20040;-63
2022/09/28 12:58:03;;;;;;;8.55;3.95;;;;;;;;;;5010196;28;20056;-63
2022/09/28 13:00:47;;;;;;;10.32;4.50;;;;;;;;;;5007546;28;20159;-63
2022/09/28 13:03:13;;;;;;;;;;;;;;;;;;4988024;28;20865;-63
2022/09/28 13:05:43;;;;;;;7.88;3.95;;;;;;;;;;5006997;28;19921;-62
2022/09/28 13:08:28;;;;;;;8.07;4.18;;;;;;;;;;5008390;28;20042;-64
2022/09/28 13:11:12;;;;;;;13.40;4.43;;;;;;;;;;5008587;28;20042;-64
2022/09/28 13:13:58;;;;;;;7.22;4.00;;;;;;;;;;5004497;28;20057;-65
2022/09/28 13:16:32;;;;;;;8.25;3.97;;;;;;;;;;5008857;28;20072;-67
2022/09/28 13:19:08;;;;;;;12.63;4.53;;;;;;;;;;5010704;28;20037;-67
2022/09/28 13:21:39;;;;;;;8.68;4.22;;;;;;;;;;5007161;28;20042;-64
2022/09/28 13:24:09;;;;;;;11.32;4.55;;;;;;;;;;5008587;28;20129;-64
2022/09/28 13:26:42;;;;;;;15.55;4.72;;;;;;;;;;5008780;28;20048;-63
2022/09/28 13:29:19;;;;;;;12.10;4.55;;;;;;;;;;5003137;28;20038;-62
2022/09/28 13:31:49;;;;;;;10.20;4.53;;;;;;;;;;5010399;28;20227;-64
2022/09/28 13:34:21;;;;;;;9.90;4.32;;;;;;;;;;5006135;28;20046;-66
2022/09/28 13:37:08;;;;;;;11.38;4.05;;;;;;;;;;5000698;28;20069;-65
2022/09/28 13:39:36;;;;;;;12.00;4.90;;;;;;;;;;5007231;28;20683;-66
2022/09/28 13:42:04;;;;;;;9.85;4.35;;;;;;;;;;5003952;28;20180;-66
2022/09/28 13:44:42;;;;;;;8.40;4.30;;;;;;;;;;4991360;28;20098;-66
2022/09/28 13:47:31;;;;;;;16.52;4.75;;;;;;;;;;5004124;28;20049;-64
2022/09/28 13:50:03;;;;;;;11.68;4.82;;;;;;;;;;4992601;28;20042;-61
2022/09/28 13:52:30;;;;;;;12.40;4.88;;;;;;;;;;5005829;28;20073;-66
2022/09/28 13:55:18;;;;;;;9.95;4.30;;;;;;;;;;5009054;28;20050;-66
2022/09/28 13:57:50;;;;;;;16.42;5.18;;;;;;;;;;5005435;28;20069;-67
2022/09/28 14:00:36;;;;;;;16.35;4.85;;;;;;;;;;4988430;28;20037;-66
2022/09/28 14:03:06;;;;;;;15.52;4.78;;;;;;;;;;5001581;28;20042;-66
2022/09/28 14:05:40;;;;;;;6.15;3.55;;;;;;;;;;4999394;28;20057;-65
2022/09/28 14:08:10;;;;;;;11.18;4.40;;;;;;;;;;4982237;28;20124;-65
2022/09/28 14:10:50;;;;;;;16.00;4.47;;;;;;;;;;5000675;28;20077;-65
2022/09/28 14:13:35;;;;;;;11.35;4.50;;;;;;;;;;4985215;28;20064;-65
2022/09/28 14:16:21;;;;;;;8.25;3.95;;;;;;;;;;5005515;28;20128;-66
2022/09/28 14:18:51;;;;;;;15.55;4.32;;;;;;;;;;5005989;28;20045;-67
2022/09/28 14:21:36;;;;;;;8.35;4.25;;;;;;;;;;4986748;28;20030;-64
2022/09/28 14:24:25;;;;;;;11.30;4.60;;;;;;;;;;5004769;28;20186;-66
2022/09/28 14:27:10;;;;;;;9.30;4.45;;;;;;;;;;4995898;28;20069;-65
2022/09/28 14:29:38;;;;;;;18.92;4.63;;;;;;;;;;5006019;28;20038;-66
2022/09/28 14:32:21;;;;;;;10.32;4.60;;;;;;;;;;4979912;28;20806;-67
2022/09/28 14:34:54;;;;;;;13.85;4.95;;;;;;;;;;5005891;28;20057;-65
2022/09/28 14:43:23;;;;;;;7.60;4.18;;;;;;;;;;5007328;28;20056;-65
2022/09/28 14:45:53;;;;;;;12.70;4.45;;;;;;;;;;4989924;28;20038;-66
2022/09/28 14:48:21;;;;;;;10.18;4.43;;;;;;;;;;5007115;28;20042;-67
2022/09/28 14:50:48;;;;;;;13.23;4.18;;;;;;;;;;4989457;28;20618;-65
2022/09/28 14:53:19;;;;;;;13.70;4.65;;;;;;;;;;5002188;28;21029;-65
2022/09/28 14:55:50;;;;;;;8.40;4.20;;;;;;;;;;5006172;28;20049;-66
2022/09/28 14:58:21;;;;;;;11.77;4.38;;;;;;;;;;5009351;28;20414;-66
2022/09/28 15:00:49;;;;;;;14.70;4.50;;;;;;;;;;5004944;28;20045;-65
2022/09/28 15:03:16;;;;;;;7.50;4.05;;;;;;;;;;4989302;28;20038;-65
2022/09/28 15:05:45;;;;;;;13.88;4.40;;;;;;;;;;5007172;28;20140;-65
2022/09/28 15:08:12;;;;;;;10.38;4.03;;;;;;;;;;4996512;28;21681;-65
2022/09/28 15:10:44;;;;;;;10.90;4.47;;;;;;;;;;5004695;28;20044;-66
2022/09/28 15:13:28;;;;;;;11.32;4.47;;;;;;;;;;4984343;28;20053;-65
2022/09/28 15:16:00;;;;;;;11.25;3.88;;;;;;;;;;4991092;28;20056;-65
2022/09/28 15:18:45;;;;;;;10.23;3.90;;;;;;;;;;5007099;28;20164;-65